createdAt,value
2018-12-30T00:00:24.431Z,10.20
2018-12-30T00:02:53.780Z,9.85
2018-12-30T00:05:24.323Z,9.45
2018-12-30T00:07:53.315Z,10.00
2018-12-30T00:10:22.339Z,10.30
2018-12-30T00:12:51.751Z,10.20
2018-12-30T00:15:21.357Z,10.80
2018-12-30T00:17:50.482Z,15.50
2018-12-30T00:20:19.622Z,12.10
2018-12-30T00:22:48.900Z,11.80
2018-12-30T00:25:18.040Z,12.07
2018-12-30T00:27:48.979Z,16.60
2018-12-30T00:30:18.115Z,11.83
2018-12-30T00:32:47.200Z,12.50
2018-12-30T00:35:16.406Z,15.25
2018-12-30T00:37:45.800Z,15.55
2018-12-30T00:40:14.899Z,12.82
2018-12-30T00:42:44.010Z,13.55
2018-12-30T00:45:13.111Z,16.07
2018-12-30T00:47:42.302Z,13.25
2018-12-30T00:50:13.872Z,19.35
2018-12-30T00:52:43.274Z,17.20
2018-12-30T00:55:13.737Z,19.37
2018-12-30T00:57:43.180Z,19.92
2018-12-30T01:00:12.599Z,19.85
2018-12-30T01:02:41.832Z,16.97
2018-12-30T01:05:11.235Z,18.02
2018-12-30T01:07:59.980Z,18.45
2018-12-30T01:10:29.018Z,18.70
2018-12-30T01:12:58.842Z,23.32
2018-12-30T01:15:28.320Z,21.25
2018-12-30T01:17:58.075Z,18.05
2018-12-30T01:20:28.574Z,19.25
2018-12-30T01:23:17.102Z,18.73
2018-12-30T01:25:46.629Z,18.62
2018-12-30T01:28:16.613Z,15.68
2018-12-30T01:30:49.281Z,19.40
2018-12-30T01:33:23.790Z,17.98
2018-12-30T01:35:53.051Z,17.48
2018-12-30T01:38:22.567Z,19.45
2018-12-30T01:40:51.683Z,17.75
2018-12-30T01:43:21.047Z,19.67
2018-12-30T01:45:50.117Z,18.15
2018-12-30T01:48:19.260Z,20.77
2018-12-30T01:50:49.156Z,16.35
2018-12-30T01:53:18.143Z,16.23
2018-12-30T01:55:47.256Z,21.10
2018-12-30T01:58:16.332Z,20.52
2018-12-30T02:00:45.552Z,21.05
2018-12-30T02:03:20.611Z,19.65
2018-12-30T02:05:49.763Z,23.27
2018-12-30T02:08:18.966Z,17.77
2018-12-30T02:10:48.068Z,17.75
2018-12-30T02:13:17.141Z,16.57
2018-12-30T02:15:47.106Z,20.17
2018-12-30T02:18:16.934Z,20.77
2018-12-30T02:20:47.922Z,24.12
2018-12-30T02:23:19.912Z,17.95
2018-12-30T02:25:51.757Z,18.27
2018-12-30T02:28:21.414Z,17.40
2018-12-30T02:30:50.958Z,18.52
2018-12-30T02:33:20.495Z,17.75
2018-12-30T02:35:50.066Z,22.22
2018-12-30T02:38:21.367Z,19.48
2018-12-30T02:40:53.150Z,20.02
2018-12-30T02:43:22.387Z,21.48
2018-12-30T02:45:51.969Z,15.90
2018-12-30T02:48:21.902Z,20.52
2018-12-30T02:50:53.298Z,17.48
2018-12-30T02:53:23.205Z,18.05
2018-12-30T02:55:54.641Z,19.95
2018-12-30T02:58:24.230Z,20.20
2018-12-30T03:00:54.135Z,20.52
2018-12-30T03:03:23.570Z,21.42
2018-12-30T03:05:53.089Z,18.15
2018-12-30T03:08:22.636Z,19.98
2018-12-30T03:10:58.608Z,18.52
2018-12-30T03:13:31.428Z,18.57
2018-12-30T03:16:01.849Z,17.77
2018-12-30T03:18:34.209Z,23.12
2018-12-30T03:21:07.881Z,20.70
2018-12-30T03:23:43.257Z,20.23
2018-12-30T03:26:16.202Z,17.80
2018-12-30T03:28:46.407Z,19.42
2018-12-30T03:31:18.067Z,19.05
2018-12-30T03:33:49.374Z,20.60
2018-12-30T03:36:19.282Z,19.40
2018-12-30T03:38:49.906Z,20.20
2018-12-30T03:41:19.947Z,18.23
2018-12-30T03:43:51.448Z,23.07
2018-12-30T03:46:22.249Z,18.92
2018-12-30T03:48:52.479Z,18.60
2018-12-30T03:51:23.590Z,19.42
2018-12-30T03:53:57.362Z,15.05
2018-12-30T03:56:28.122Z,17.75
2018-12-30T03:58:58.136Z,15.98
2018-12-30T04:01:28.212Z,21.17
2018-12-30T04:04:03.071Z,19.37
2018-12-30T04:06:37.956Z,18.90
2018-12-30T04:09:08.923Z,19.55
2018-12-30T04:11:39.183Z,20.90
2018-12-30T04:14:08.649Z,19.82
2018-12-30T04:16:39.096Z,22.40
2018-12-30T04:19:08.393Z,25.68
2018-12-30T04:21:37.948Z,22.95
2018-12-30T04:24:07.167Z,20.95
2018-12-30T04:26:37.191Z,16.50
2018-12-30T04:29:06.526Z,19.70
2018-12-30T04:31:35.580Z,19.77
2018-12-30T04:34:05.010Z,17.27
2018-12-30T04:36:34.322Z,19.05
2018-12-30T04:39:03.870Z,17.75
2018-12-30T04:41:33.271Z,20.95
2018-12-30T04:44:02.587Z,16.02
2018-12-30T04:46:31.594Z,19.17
2018-12-30T04:49:01.217Z,19.27
2018-12-30T04:51:31.104Z,23.35
2018-12-30T04:54:00.580Z,20.48
2018-12-30T04:56:29.884Z,18.67
2018-12-30T04:58:59.622Z,23.12
2018-12-30T05:01:29.018Z,16.15
2018-12-30T05:03:58.810Z,18.73
2018-12-30T05:06:28.310Z,23.32
2018-12-30T05:08:58.355Z,24.82
2018-12-30T05:11:27.971Z,20.43
2018-12-30T05:13:57.804Z,17.95
2018-12-30T05:16:27.502Z,19.05
2018-12-30T05:22:13.846Z,20.47
2018-12-30T05:24:43.149Z,19.10
2018-12-30T05:27:12.001Z,20.15
2018-12-30T05:29:41.368Z,20.75
2018-12-30T05:32:10.774Z,16.40
2018-12-30T05:34:39.745Z,17.42
2018-12-30T05:37:09.246Z,20.23
2018-12-30T05:39:38.451Z,18.95
2018-12-30T05:42:07.747Z,20.90
2018-12-30T05:44:36.683Z,12.33
2018-12-30T05:47:06.746Z,16.60
2018-12-30T05:49:35.954Z,16.93
2018-12-30T05:52:04.925Z,17.45
2018-12-30T05:54:33.794Z,12.20
2018-12-30T05:57:02.774Z,17.87
2018-12-30T05:59:31.697Z,16.02
2018-12-30T06:02:00.807Z,16.70
2018-12-30T06:04:30.035Z,24.67
2018-12-30T06:06:59.237Z,16.32
2018-12-30T06:09:28.510Z,20.32
2018-12-30T06:11:57.703Z,16.10
2018-12-30T06:14:26.903Z,16.45
2018-12-30T06:16:55.760Z,16.02
2018-12-30T06:19:24.966Z,16.70
2018-12-30T06:21:53.808Z,18.30
2018-12-30T06:24:23.728Z,17.32
2018-12-30T06:26:52.905Z,19.67
2018-12-30T06:29:21.794Z,17.27
2018-12-30T06:31:51.015Z,19.82
2018-12-30T06:34:20.185Z,18.15
2018-12-30T06:36:49.995Z,16.27
2018-12-30T06:39:18.935Z,20.52
2018-12-30T06:41:47.898Z,17.00
2018-12-30T06:44:17.361Z,18.57
2018-12-30T06:46:46.598Z,18.35
2018-12-30T06:49:15.567Z,17.87
2018-12-30T06:51:44.525Z,22.42
2018-12-30T06:54:14.297Z,16.05
2018-12-30T06:56:43.253Z,20.95
2018-12-30T06:59:12.373Z,15.53
2018-12-30T07:01:43.594Z,18.23
2018-12-30T07:04:12.974Z,14.65
2018-12-30T07:06:42.000Z,18.12
2018-12-30T07:09:11.069Z,16.02
2018-12-30T07:11:40.879Z,16.10
2018-12-30T07:14:09.928Z,19.48
2018-12-30T07:16:39.474Z,19.35
2018-12-30T07:19:08.503Z,15.95
2018-12-30T07:21:37.418Z,14.68
2018-12-30T07:24:06.546Z,14.53
2018-12-30T07:26:35.562Z,16.77
2018-12-30T07:29:04.822Z,13.83
2018-12-30T07:31:33.815Z,13.48
2018-12-30T07:34:02.807Z,21.23
2018-12-30T07:36:31.690Z,16.20
2018-12-30T07:39:00.651Z,18.37
2018-12-30T07:41:29.718Z,14.85
2018-12-30T07:43:59.738Z,17.17
2018-12-30T07:46:28.758Z,16.15
2018-12-30T07:48:57.702Z,18.07
2018-12-30T07:51:40.773Z,14.85
2018-12-30T07:54:10.020Z,14.95
2018-12-30T07:56:39.406Z,22.27
2018-12-30T07:59:08.888Z,13.60
2018-12-30T08:01:38.251Z,13.03
2018-12-30T08:04:07.292Z,20.15
2018-12-30T08:06:36.614Z,15.58
2018-12-30T08:09:07.977Z,13.60
2018-12-30T08:11:36.968Z,11.88
2018-12-30T08:14:05.950Z,19.40
2018-12-30T08:16:34.975Z,18.00
2018-12-30T08:19:04.130Z,18.45
2018-12-30T08:21:33.290Z,24.57
2018-12-30T08:24:03.011Z,14.38
2018-12-30T08:26:32.338Z,18.27
2018-12-30T08:29:01.625Z,14.15
2018-12-30T08:31:30.914Z,13.58
2018-12-30T08:34:00.071Z,21.10
2018-12-30T08:36:29.205Z,22.35
2018-12-30T08:38:58.553Z,13.90
2018-12-30T08:41:27.699Z,14.38
2018-12-30T08:43:57.024Z,16.55
2018-12-30T08:46:26.128Z,11.97
2018-12-30T08:48:55.182Z,16.45
2018-12-30T08:51:24.172Z,15.50
2018-12-30T08:53:53.026Z,17.15
2018-12-30T08:56:22.263Z,17.32
2018-12-30T08:58:51.339Z,18.60
2018-12-30T09:01:28.103Z,19.32
2018-12-30T09:03:51.254Z,16.52
2018-12-30T09:06:20.952Z,18.50
2018-12-30T09:08:50.306Z,15.28
2018-12-30T09:11:19.277Z,17.40
2018-12-30T09:13:48.211Z,20.52
2018-12-30T09:16:17.210Z,17.80
2018-12-30T09:18:47.049Z,18.52
2018-12-30T09:21:16.603Z,18.70
2018-12-30T09:23:45.607Z,22.75
2018-12-30T09:26:14.520Z,15.95
2018-12-30T09:28:43.897Z,20.10
2018-12-30T09:31:13.140Z,14.83
2018-12-30T09:33:42.161Z,17.92
2018-12-30T09:36:11.546Z,20.23
2018-12-30T09:38:40.473Z,18.30
2018-12-30T09:41:09.445Z,20.65
2018-12-30T09:43:38.646Z,17.30
2018-12-30T09:46:07.690Z,16.85
2018-12-30T09:48:36.853Z,16.57
2018-12-30T09:51:05.920Z,15.48
2018-12-30T09:53:35.106Z,13.72
2018-12-30T09:56:04.771Z,18.65
2018-12-30T09:58:33.641Z,15.03
2018-12-30T10:01:02.612Z,13.85
2018-12-30T10:03:45.374Z,14.30
2018-12-30T10:06:34.887Z,16.25
2018-12-30T10:09:07.776Z,16.17
2018-12-30T10:11:44.410Z,15.32
2018-12-30T10:14:13.502Z,23.18
2018-12-30T10:16:42.560Z,15.60
2018-12-30T10:19:11.551Z,18.57
2018-12-30T10:21:40.481Z,14.78
2018-12-30T10:24:10.233Z,15.85
2018-12-30T10:26:42.062Z,17.45
2018-12-30T10:29:10.999Z,16.20
2018-12-30T10:31:40.006Z,15.85
2018-12-30T10:34:09.094Z,19.25
2018-12-30T10:37:25.497Z,17.25
2018-12-30T10:40:19.434Z,21.90
2018-12-30T10:42:58.807Z,25.02
2018-12-30T10:45:28.133Z,19.02
2018-12-30T10:48:12.143Z,20.00
2018-12-30T10:54:31.054Z,18.73
2018-12-30T10:57:18.852Z,17.42
2018-12-30T10:59:52.114Z,14.95
2018-12-30T11:02:22.186Z,19.98
2018-12-30T11:04:51.497Z,18.15
2018-12-30T11:07:21.359Z,13.38
2018-12-30T11:09:50.314Z,17.52
2018-12-30T11:12:19.370Z,14.75
2018-12-30T11:14:48.386Z,15.13
2018-12-30T11:17:17.358Z,17.52
2018-12-30T11:19:46.722Z,23.32
2018-12-30T11:22:16.440Z,14.13
2018-12-30T11:31:59.152Z,15.80
2018-12-30T11:34:27.981Z,17.65
2018-12-30T11:36:57.114Z,16.70
2018-12-30T11:39:28.957Z,20.25
2018-12-30T11:41:58.256Z,18.40
2018-12-30T11:44:27.279Z,15.68
2018-12-30T11:46:56.306Z,17.07
2018-12-30T11:49:25.457Z,15.05
2018-12-30T11:51:54.635Z,16.00
2018-12-30T11:54:24.071Z,20.23
2018-12-30T11:57:28.063Z,20.30
2018-12-30T12:03:45.669Z,17.42
2018-12-30T12:06:15.876Z,17.15
2018-12-30T12:08:48.306Z,21.73
2018-12-30T12:11:17.470Z,23.98
2018-12-30T12:13:46.622Z,14.43
2018-12-30T12:16:15.907Z,18.02
2018-12-30T12:18:45.236Z,16.90
2018-12-30T12:21:14.197Z,14.13
2018-12-30T12:27:18.157Z,17.73
2018-12-30T12:29:47.992Z,13.70
2018-12-30T12:35:47.463Z,16.00
2018-12-30T12:38:16.510Z,15.30
2018-12-30T12:40:45.898Z,17.50
2018-12-30T12:43:15.407Z,22.42
2018-12-30T12:45:44.681Z,22.60
2018-12-30T12:48:13.801Z,18.23
2018-12-30T12:50:42.879Z,13.70
2018-12-30T13:02:57.912Z,15.25
2018-12-30T13:05:37.930Z,16.95
2018-12-30T13:12:51.898Z,14.25
2018-12-30T13:15:21.145Z,18.07
2018-12-30T13:17:50.347Z,17.40
2018-12-30T13:20:19.656Z,15.80
2018-12-30T13:22:48.701Z,16.67
2018-12-30T13:25:17.947Z,19.15
2018-12-30T13:27:47.151Z,13.25
2018-12-30T13:30:16.862Z,18.42
2018-12-30T13:32:46.659Z,15.80
2018-12-30T13:35:15.873Z,20.32
2018-12-30T13:37:44.826Z,15.23
2018-12-30T13:40:13.804Z,15.10
2018-12-30T13:42:43.691Z,12.18
2018-12-30T13:45:12.800Z,18.57
2018-12-30T13:47:43.254Z,17.52
2018-12-30T13:50:12.203Z,14.80
2018-12-30T13:52:41.222Z,16.12
2018-12-30T13:55:10.193Z,18.67
2018-12-30T13:57:39.064Z,17.73
2018-12-30T14:00:09.234Z,14.10
2018-12-30T14:02:38.282Z,14.78
2018-12-30T14:05:07.294Z,18.77
2018-12-30T14:07:36.241Z,15.25
2018-12-30T14:10:07.755Z,14.50
2018-12-30T14:12:36.816Z,16.30
2018-12-30T14:15:06.496Z,17.87
2018-12-30T14:17:38.264Z,18.02
2018-12-30T14:20:07.650Z,16.25
2018-12-30T14:22:36.494Z,18.48
2018-12-30T14:25:07.449Z,17.60
2018-12-30T14:27:36.369Z,20.80
2018-12-30T14:30:06.326Z,14.50
2018-12-30T14:32:36.548Z,18.35
2018-12-30T14:35:05.747Z,18.25
2018-12-30T14:37:37.081Z,27.02
2018-12-30T14:40:06.301Z,18.00
2018-12-30T14:42:38.370Z,17.70
2018-12-30T14:45:08.637Z,18.23
2018-12-30T14:47:39.164Z,19.17
2018-12-30T14:50:10.495Z,18.73
2018-12-30T14:52:39.544Z,17.92
2018-12-30T14:55:10.108Z,22.80
2018-12-30T14:57:43.457Z,18.67
2018-12-30T15:00:12.817Z,22.65
2018-12-30T15:02:43.750Z,20.08
2018-12-30T15:05:15.181Z,20.43
2018-12-30T15:07:45.516Z,18.35
2018-12-30T15:10:15.072Z,20.52
2018-12-30T15:12:43.894Z,18.25
2018-12-30T15:15:12.827Z,22.40
2018-12-30T15:17:44.961Z,18.32
2018-12-30T15:20:13.976Z,18.30
2018-12-30T15:22:46.233Z,19.80
2018-12-30T15:25:16.484Z,21.68
2018-12-30T15:27:45.713Z,18.98
2018-12-30T15:30:17.271Z,20.23
2018-12-30T15:32:46.554Z,21.42
2018-12-30T15:35:16.603Z,18.12
2018-12-30T15:37:45.726Z,21.07
2018-12-30T15:40:17.014Z,22.37
2018-12-30T15:42:46.201Z,25.50
2018-12-30T15:45:17.749Z,22.22
2018-12-30T15:47:46.778Z,22.75
2018-12-30T15:50:15.846Z,21.20
2018-12-30T15:52:44.809Z,21.77
2018-12-30T15:55:19.580Z,18.75
2018-12-30T15:57:46.535Z,19.20
2018-12-30T16:00:18.257Z,19.77
2018-12-30T16:02:47.386Z,19.50
2018-12-30T16:05:18.067Z,20.70
2018-12-30T16:07:48.511Z,22.50
2018-12-30T16:10:17.640Z,19.73
2018-12-30T16:12:49.024Z,19.50
2018-12-30T16:15:18.086Z,25.77
2018-12-30T16:17:49.322Z,17.42
2018-12-30T16:20:19.554Z,19.30
2018-12-30T16:22:51.046Z,24.92
2018-12-30T16:25:26.988Z,19.42
2018-12-30T16:27:50.728Z,20.77
2018-12-30T16:30:19.766Z,22.55
2018-12-30T16:32:48.787Z,19.82
2018-12-30T16:35:18.701Z,21.48
2018-12-30T16:37:49.423Z,17.35
2018-12-30T16:40:18.636Z,22.37
2018-12-30T16:42:47.492Z,21.30
2018-12-30T16:45:16.646Z,24.23
2018-12-30T16:47:45.506Z,24.27
2018-12-30T16:50:14.895Z,26.75
2018-12-30T16:52:43.916Z,23.50
2018-12-30T16:55:12.830Z,20.77
2018-12-30T16:57:41.771Z,20.60
2018-12-30T17:00:12.251Z,20.17
2018-12-30T17:02:41.278Z,21.05
2018-12-30T17:05:10.722Z,24.18
2018-12-30T17:07:39.595Z,21.77
2018-12-30T17:10:12.638Z,24.72
2018-12-30T17:12:41.486Z,24.60
2018-12-30T17:15:11.518Z,28.83
2018-12-30T17:17:42.254Z,20.62
2018-12-30T17:20:11.385Z,21.73
2018-12-30T17:22:42.606Z,24.98
2018-12-30T17:25:14.309Z,21.35
2018-12-30T17:27:43.535Z,24.18
2018-12-30T17:30:17.430Z,18.32
2018-12-30T17:32:52.651Z,20.12
2018-12-30T17:35:21.601Z,22.45
2018-12-30T17:37:50.698Z,22.60
2018-12-30T17:40:21.361Z,20.57
2018-12-30T17:42:56.122Z,20.20
2018-12-30T17:45:25.033Z,23.42
2018-12-30T17:47:53.979Z,19.10
2018-12-30T17:50:22.906Z,22.32
2018-12-30T17:52:51.802Z,20.37
2018-12-30T17:55:20.643Z,23.42
2018-12-30T17:57:49.465Z,23.65
2018-12-30T18:00:18.397Z,24.15
2018-12-30T18:02:47.537Z,24.70
2018-12-30T18:05:16.369Z,28.62
2018-12-30T18:07:46.621Z,29.15
2018-12-30T18:10:17.860Z,18.92
2018-12-30T18:12:46.589Z,17.73
2018-12-30T18:15:15.554Z,20.17
2018-12-30T18:17:44.433Z,22.87
2018-12-30T18:20:13.546Z,20.82
2018-12-30T18:22:42.407Z,23.83
2018-12-30T18:25:38.642Z,19.62
2018-12-30T18:28:07.558Z,20.60
2018-12-30T18:33:25.330Z,23.77
2018-12-30T18:35:54.639Z,17.05
2018-12-30T18:38:25.099Z,24.80
2018-12-30T18:40:56.910Z,21.35
2018-12-30T18:43:25.876Z,20.75
2018-12-30T18:45:54.912Z,17.50
2018-12-30T18:48:23.895Z,19.40
2018-12-30T18:50:52.848Z,21.93
2018-12-30T18:53:21.951Z,20.70
2018-12-30T18:55:52.160Z,21.73
2018-12-30T18:58:21.077Z,26.02
2018-12-30T19:00:50.078Z,17.90
2018-12-30T19:03:19.028Z,21.50
2018-12-30T19:05:49.734Z,21.97
2018-12-30T19:08:19.230Z,23.52
2018-12-30T19:10:48.245Z,25.37
2018-12-30T19:13:17.165Z,19.07
2018-12-30T19:15:47.116Z,22.30
2018-12-30T19:18:16.412Z,28.62
2018-12-30T19:20:45.393Z,23.52
2018-12-30T19:23:14.231Z,19.60
2018-12-30T19:25:43.085Z,22.07
2018-12-30T19:28:12.011Z,28.20
2018-12-30T19:30:40.928Z,26.25
2018-12-30T19:33:09.852Z,19.17
2018-12-30T19:35:38.790Z,20.12
2018-12-30T19:38:07.858Z,22.22
2018-12-30T19:40:37.214Z,18.50
2018-12-30T19:43:06.304Z,20.52
2018-12-30T19:45:35.370Z,17.52
2018-12-30T19:48:05.604Z,19.60
2018-12-30T19:50:34.519Z,23.57
2018-12-30T19:53:04.158Z,20.65
2018-12-30T19:55:33.082Z,20.17
2018-12-30T19:58:05.222Z,19.62
2018-12-30T20:00:34.360Z,20.55
2018-12-30T20:03:03.522Z,22.20
2018-12-30T20:05:32.511Z,23.35
2018-12-30T20:08:02.101Z,18.50
2018-12-30T20:10:33.635Z,21.85
2018-12-30T20:13:08.915Z,20.10
2018-12-30T20:15:34.263Z,22.42
2018-12-30T20:18:03.117Z,22.42
2018-12-30T20:20:33.582Z,22.20
2018-12-30T20:23:02.602Z,20.68
2018-12-30T20:29:00.673Z,23.12
2018-12-30T20:31:29.554Z,25.27
2018-12-30T20:34:04.227Z,23.02
2018-12-30T20:36:37.367Z,23.55
2018-12-30T20:39:09.530Z,25.92
2018-12-30T20:41:41.487Z,25.40
2018-12-30T20:44:16.438Z,23.60
2018-12-30T20:46:48.227Z,19.52
2018-12-30T20:49:22.126Z,22.10
2018-12-30T20:51:54.664Z,22.30
2018-12-30T20:54:28.253Z,27.67
2018-12-30T20:57:21.146Z,22.37
2018-12-30T20:59:27.982Z,22.05
2018-12-30T21:02:03.054Z,27.82
2018-12-30T21:04:35.688Z,27.95
2018-12-30T21:07:10.191Z,31.05
2018-12-30T21:09:45.937Z,30.77
2018-12-30T21:12:28.413Z,24.47
2018-12-30T21:15:00.320Z,25.55
2018-12-30T21:17:32.426Z,31.25
2018-12-30T21:20:06.757Z,25.72
2018-12-30T21:22:35.710Z,22.37
2018-12-30T21:25:14.401Z,29.40
2018-12-30T21:27:45.905Z,30.20
2018-12-30T21:30:19.310Z,23.02
2018-12-30T21:33:02.340Z,30.30
2018-12-30T21:35:38.749Z,30.00
2018-12-30T21:38:10.786Z,25.77
2018-12-30T21:40:48.955Z,23.55
2018-12-30T21:43:18.116Z,25.12
2018-12-30T21:45:47.074Z,25.25
2018-12-30T21:48:17.507Z,23.52
2018-12-30T21:50:46.650Z,25.00
2018-12-30T21:53:15.470Z,23.55
2018-12-30T21:55:44.427Z,23.35
2018-12-30T21:58:13.395Z,22.52
2018-12-30T22:00:44.467Z,22.75
2018-12-30T22:03:13.393Z,24.98
2018-12-30T22:05:42.749Z,24.40
2018-12-30T22:08:11.580Z,24.27
2018-12-30T22:10:40.429Z,26.93
2018-12-30T22:13:09.254Z,23.00
2018-12-30T22:15:38.072Z,26.87
2018-12-30T22:18:06.924Z,24.55
2018-12-30T22:20:35.918Z,27.55
2018-12-30T22:23:04.811Z,23.98
2018-12-30T22:25:33.643Z,21.07
2018-12-30T22:28:02.630Z,24.20
2018-12-30T22:30:31.541Z,26.50
2018-12-30T22:33:00.381Z,23.45
2018-12-30T22:35:29.245Z,25.97
2018-12-30T22:37:59.686Z,24.52
2018-12-30T22:40:28.533Z,25.35
2018-12-30T22:42:57.484Z,27.27
2018-12-30T22:45:26.414Z,25.37
2018-12-30T22:47:55.323Z,29.50
2018-12-30T22:50:24.464Z,27.32
2018-12-30T22:52:53.333Z,26.50
2018-12-30T22:55:22.185Z,25.75
2018-12-30T22:57:54.187Z,24.15
2018-12-30T23:00:40.982Z,28.73
2018-12-30T23:03:10.157Z,23.98
2018-12-30T23:05:39.065Z,24.18
2018-12-30T23:08:07.917Z,29.37
2018-12-30T23:10:36.778Z,23.67
2018-12-30T23:13:07.267Z,25.80
2018-12-30T23:15:42.263Z,21.52
2018-12-30T23:18:11.406Z,22.67
2018-12-30T23:20:40.266Z,24.82
2018-12-30T23:23:09.187Z,25.57
2018-12-30T23:25:38.032Z,20.92
2018-12-30T23:28:11.202Z,23.50
2018-12-30T23:30:40.207Z,18.40
2018-12-30T23:33:09.149Z,26.37
2018-12-30T23:35:37.982Z,24.47
2018-12-30T23:38:07.006Z,21.85
2018-12-30T23:40:36.009Z,23.42
2018-12-30T23:43:04.954Z,23.47
2018-12-30T23:45:34.030Z,26.23
2018-12-30T23:48:02.886Z,23.47
2018-12-30T23:50:31.723Z,24.12
2018-12-30T23:53:00.652Z,27.30
2018-12-30T23:55:29.640Z,22.70
2018-12-30T23:57:59.557Z,24.18
